Terminal Aerodrome Forecast
Issued by NWS

Home | Current Version | Previous Version | Graphics & Text | Print | Product List | Glossary On
Versions: 1 2 3 4 5 6 7 8 9 10 11 12 13 14 15 16 17
359
FTUS43 KGRB 210534
TAFATW
TAF
KATW 210534Z 2106/2206 23006KT P6SM BKN100 BKN200
     FM210900 26006KT P6SM FEW120 SCT200
     FM211500 27011KT P6SM SCT070 BKN200
     FM212200 33006KT P6SM -SHRA BKN070 BKN120
     FM220200 03006KT P6SM SKC=

USA.gov is the U.S. government's official web portal to all federal, state and local government web resources and services.